sensor_id;sensor_type;location;lat;lon;timestamp;P1;durP1;ratioP1;P2;durP2;ratioP2
74519;SDS011;63002;48.134;-1.948;2023-07-20T05:00:12;2.15;;;0.60;;
74519;SDS011;63002;48.134;-1.948;2023-07-20T05:02:39;3.10;;;0.63;;
74519;SDS011;63002;48.134;-1.948;2023-07-20T05:05:05;3.42;;;0.75;;
74519;SDS011;63002;48.134;-1.948;2023-07-20T05:07:31;2.97;;;0.80;;
74519;SDS011;63002;48.134;-1.948;2023-07-20T05:09:57;2.45;;;0.90;;
74519;SDS011;63002;48.134;-1.948;2023-07-20T05:12:23;2.17;;;0.70;;
74519;SDS011;63002;48.134;-1.948;2023-07-20T05:14:48;3.45;;;0.52;;
74519;SDS011;63002;48.134;-1.948;2023-07-20T05:17:14;4.00;;;0.70;;
74519;SDS011;63002;48.134;-1.948;2023-07-20T05:19:40;2.65;;;0.60;;
74519;SDS011;63002;48.134;-1.948;2023-07-20T05:22:05;1.80;;;0.43;;
74519;SDS011;63002;48.134;-1.948;2023-07-20T05:24:31;2.47;;;0.70;;
74519;SDS011;63002;48.134;-1.948;2023-07-20T05:26:58;2.83;;;0.70;;
74519;SDS011;63002;48.134;-1.948;2023-07-20T05:29:23;3.38;;;0.50;;
74519;SDS011;63002;48.134;-1.948;2023-07-20T05:31:50;3.05;;;0.77;;
74519;SDS011;63002;48.134;-1.948;2023-07-20T05:34:16;2.30;;;0.63;;
74519;SDS011;63002;48.134;-1.948;2023-07-20T05:36:41;3.78;;;0.70;;
74519;SDS011;63002;48.134;-1.948;2023-07-20T05:39:07;2.17;;;0.70;;
74519;SDS011;63002;48.134;-1.948;2023-07-20T05:41:33;4.32;;;0.60;;
74519;SDS011;63002;48.134;-1.948;2023-07-20T05:43:58;4.50;;;1.10;;
74519;SDS011;63002;48.134;-1.948;2023-07-20T05:46:24;3.40;;;0.85;;
74519;SDS011;63002;48.134;-1.948;2023-07-20T05:48:50;4.43;;;0.90;;
74519;SDS011;63002;48.134;-1.948;2023-07-20T05:51:15;3.30;;;0.80;;
74519;SDS011;63002;48.134;-1.948;2023-07-20T05:53:41;2.63;;;0.70;;
74519;SDS011;63002;48.134;-1.948;2023-07-20T05:56:07;3.87;;;0.70;;
74519;SDS011;63002;48.134;-1.948;2023-07-20T05:58:35;2.83;;;0.70;;
74519;SDS011;63002;48.134;-1.948;2023-07-20T06:01:03;4.07;;;0.80;;
74519;SDS011;63002;48.134;-1.948;2023-07-20T06:03:30;4.57;;;0.75;;
74519;SDS011;63002;48.134;-1.948;2023-07-20T06:06:02;3.65;;;0.77;;
74519;SDS011;63002;48.134;-1.948;2023-07-20T06:08:31;3.83;;;0.70;;
74519;SDS011;63002;48.134;-1.948;2023-07-20T06:10:57;4.78;;;0.77;;
74519;SDS011;63002;48.134;-1.948;2023-07-20T06:13:22;3.05;;;0.60;;
74519;SDS011;63002;48.134;-1.948;2023-07-20T06:15:49;5.00;;;0.80;;
74519;SDS011;63002;48.134;-1.948;2023-07-20T06:18:15;5.77;;;0.90;;
74519;SDS011;63002;48.134;-1.948;2023-07-20T06:20:40;2.20;;;0.68;;
74519;SDS011;63002;48.134;-1.948;2023-07-20T06:23:06;3.10;;;0.73;;
74519;SDS011;63002;48.134;-1.948;2023-07-20T06:25:32;5.73;;;1.13;;
74519;SDS011;63002;48.134;-1.948;2023-07-20T06:27:58;3.92;;;0.50;;
74519;SDS011;63002;48.134;-1.948;2023-07-20T06:30:24;2.83;;;0.57;;
74519;SDS011;63002;48.134;-1.948;2023-07-20T06:32:49;3.35;;;0.85;;
74519;SDS011;63002;48.134;-1.948;2023-07-20T06:35:16;3.75;;;0.73;;
74519;SDS011;63002;48.134;-1.948;2023-07-20T06:37:42;4.03;;;0.80;;
74519;SDS011;63002;48.134;-1.948;2023-07-20T06:40:08;5.93;;;0.93;;
74519;SDS011;63002;48.134;-1.948;2023-07-20T06:42:34;3.65;;;0.70;;
74519;SDS011;63002;48.134;-1.948;2023-07-20T06:45:00;2.77;;;0.70;;
74519;SDS011;63002;48.134;-1.948;2023-07-20T06:47:26;2.38;;;0.60;;
74519;SDS011;63002;48.134;-1.948;2023-07-20T06:49:52;3.63;;;0.52;;
74519;SDS011;63002;48.134;-1.948;2023-07-20T06:52:18;2.60;;;1.10;;
74519;SDS011;63002;48.134;-1.948;2023-07-20T06:54:43;3.47;;;0.70;;
74519;SDS011;63002;48.134;-1.948;2023-07-20T06:57:09;3.85;;;1.05;;
74519;SDS011;63002;48.134;-1.948;2023-07-20T06:59:35;21.93;;;2.30;;
74519;SDS011;63002;48.134;-1.948;2023-07-20T07:02:01;12.18;;;1.13;;
74519;SDS011;63002;48.134;-1.948;2023-07-20T07:04:27;4.53;;;0.97;;
74519;SDS011;63002;48.134;-1.948;2023-07-20T07:06:53;6.72;;;0.80;;
74519;SDS011;63002;48.134;-1.948;2023-07-20T07:09:19;5.68;;;1.00;;
74519;SDS011;63002;48.134;-1.948;2023-07-20T07:11:45;6.03;;;0.97;;
74519;SDS011;63002;48.134;-1.948;2023-07-20T07:14:11;7.15;;;1.20;;
74519;SDS011;63002;48.134;-1.948;2023-07-20T07:16:37;3.80;;;1.08;;
74519;SDS011;63002;48.134;-1.948;2023-07-20T07:19:03;5.57;;;1.20;;
74519;SDS011;63002;48.134;-1.948;2023-07-20T07:21:30;4.65;;;1.10;;
74519;SDS011;63002;48.134;-1.948;2023-07-20T07:23:56;5.95;;;1.30;;
74519;SDS011;63002;48.134;-1.948;2023-07-20T07:26:22;5.45;;;1.23;;
74519;SDS011;63002;48.134;-1.948;2023-07-20T07:28:49;6.10;;;1.33;;
74519;SDS011;63002;48.134;-1.948;2023-07-20T07:31:15;7.90;;;1.60;;
74519;SDS011;63002;48.134;-1.948;2023-07-20T07:33:40;12.57;;;2.00;;
74519;SDS011;63002;48.134;-1.948;2023-07-20T07:36:06;7.22;;;1.90;;
74519;SDS011;63002;48.134;-1.948;2023-07-20T07:38:32;11.68;;;2.03;;
74519;SDS011;63002;48.134;-1.948;2023-07-20T07:40:58;9.18;;;1.67;;
74519;SDS011;63002;48.134;-1.948;2023-07-20T07:43:24;8.27;;;1.60;;
74519;SDS011;63002;48.134;-1.948;2023-07-20T07:45:50;15.25;;;2.38;;
74519;SDS011;63002;48.134;-1.948;2023-07-20T07:48:19;13.43;;;2.17;;
74519;SDS011;63002;48.134;-1.948;2023-07-20T07:50:46;14.45;;;2.28;;
74519;SDS011;63002;48.134;-1.948;2023-07-20T07:53:12;11.07;;;2.78;;
74519;SDS011;63002;48.134;-1.948;2023-07-20T07:55:37;8.57;;;2.23;;
74519;SDS011;63002;48.134;-1.948;2023-07-20T07:58:03;10.20;;;2.15;;
74519;SDS011;63002;48.134;-1.948;2023-07-20T08:00:29;8.97;;;2.13;;
74519;SDS011;63002;48.134;-1.948;2023-07-20T08:02:55;9.93;;;2.42;;
74519;SDS011;63002;48.134;-1.948;2023-07-20T08:05:21;9.07;;;2.40;;
74519;SDS011;63002;48.134;-1.948;2023-07-20T08:07:47;12.50;;;2.77;;
74519;SDS011;63002;48.134;-1.948;2023-07-20T08:10:12;13.07;;;2.70;;
74519;SDS011;63002;48.134;-1.948;2023-07-20T08:12:38;7.27;;;2.17;;
74519;SDS011;63002;48.134;-1.948;2023-07-20T08:15:04;10.18;;;2.10;;
74519;SDS011;63002;48.134;-1.948;2023-07-20T08:17:31;10.00;;;2.28;;
74519;SDS011;63002;48.134;-1.948;2023-07-20T08:19:59;62.07;;;4.53;;
74519;SDS011;63002;48.134;-1.948;2023-07-20T08:22:25;13.55;;;2.00;;
74519;SDS011;63002;48.134;-1.948;2023-07-20T08:24:51;6.72;;;1.92;;
74519;SDS011;63002;48.134;-1.948;2023-07-20T08:27:16;7.83;;;2.10;;
74519;SDS011;63002;48.134;-1.948;2023-07-20T08:29:42;10.02;;;2.97;;
74519;SDS011;63002;48.134;-1.948;2023-07-20T08:32:08;9.67;;;2.00;;
74519;SDS011;63002;48.134;-1.948;2023-07-20T08:34:34;8.02;;;1.92;;
74519;SDS011;63002;48.134;-1.948;2023-07-20T08:36:59;7.70;;;1.60;;
74519;SDS011;63002;48.134;-1.948;2023-07-20T08:39:26;5.20;;;1.42;;
74519;SDS011;63002;48.134;-1.948;2023-07-20T08:41:54;7.93;;;1.80;;
74519;SDS011;63002;48.134;-1.948;2023-07-20T08:44:22;6.32;;;1.60;;
74519;SDS011;63002;48.134;-1.948;2023-07-20T08:46:48;13.57;;;2.08;;
74519;SDS011;63002;48.134;-1.948;2023-07-20T08:49:15;8.82;;;2.60;;
74519;SDS011;63002;48.134;-1.948;2023-07-20T08:51:42;9.20;;;1.95;;
74519;SDS011;63002;48.134;-1.948;2023-07-20T08:54:10;16.95;;;4.05;;
74519;SDS011;63002;48.134;-1.948;2023-07-20T08:56:38;10.70;;;2.22;;
74519;SDS011;63002;48.134;-1.948;2023-07-20T08:59:08;10.38;;;1.95;;
74519;SDS011;63002;48.134;-1.948;2023-07-20T09:01:36;6.75;;;2.03;;
74519;SDS011;63002;48.134;-1.948;2023-07-20T09:04:05;9.80;;;1.80;;
74519;SDS011;63002;48.134;-1.948;2023-07-20T09:06:34;7.97;;;1.85;;
74519;SDS011;63002;48.134;-1.948;2023-07-20T09:09:01;8.38;;;2.05;;
74519;SDS011;63002;48.134;-1.948;2023-07-20T09:11:27;9.00;;;1.90;;
74519;SDS011;63002;48.134;-1.948;2023-07-20T09:14:03;15.57;;;1.98;;
74519;SDS011;63002;48.134;-1.948;2023-07-20T09:16:31;8.38;;;1.90;;
74519;SDS011;63002;48.134;-1.948;2023-07-20T09:18:57;9.18;;;1.85;;
74519;SDS011;63002;48.134;-1.948;2023-07-20T09:21:24;8.30;;;1.70;;
74519;SDS011;63002;48.134;-1.948;2023-07-20T09:23:58;10.75;;;1.70;;
74519;SDS011;63002;48.134;-1.948;2023-07-20T09:26:24;7.70;;;1.80;;
74519;SDS011;63002;48.134;-1.948;2023-07-20T09:28:52;7.97;;;1.48;;
74519;SDS011;63002;48.134;-1.948;2023-07-20T09:31:19;6.70;;;1.85;;
74519;SDS011;63002;48.134;-1.948;2023-07-20T09:33:47;6.15;;;1.50;;
74519;SDS011;63002;48.134;-1.948;2023-07-20T09:36:13;8.48;;;1.38;;
74519;SDS011;63002;48.134;-1.948;2023-07-20T09:38:43;9.48;;;1.33;;
74519;SDS011;63002;48.134;-1.948;2023-07-20T09:41:15;5.07;;;1.50;;
74519;SDS011;63002;48.134;-1.948;2023-07-20T09:43:46;8.05;;;1.45;;
74519;SDS011;63002;48.134;-1.948;2023-07-20T09:46:14;8.52;;;1.30;;
74519;SDS011;63002;48.134;-1.948;2023-07-20T09:48:48;5.78;;;1.40;;
74519;SDS011;63002;48.134;-1.948;2023-07-20T09:51:24;6.30;;;1.63;;
74519;SDS011;63002;48.134;-1.948;2023-07-20T09:53:52;7.43;;;1.85;;
74519;SDS011;63002;48.134;-1.948;2023-07-20T09:56:21;4.05;;;1.10;;
74519;SDS011;63002;48.134;-1.948;2023-07-20T09:58:50;3.20;;;0.90;;
74519;SDS011;63002;48.134;-1.948;2023-07-20T10:01:17;4.95;;;1.30;;
74519;SDS011;63002;48.134;-1.948;2023-07-20T10:03:47;5.82;;;1.55;;
74519;SDS011;63002;48.134;-1.948;2023-07-20T10:06:23;5.93;;;1.30;;
74519;SDS011;63002;48.134;-1.948;2023-07-20T10:08:59;11.40;;;1.77;;
74519;SDS011;63002;48.134;-1.948;2023-07-20T10:11:50;7.90;;;1.40;;
74519;SDS011;63002;48.134;-1.948;2023-07-20T10:14:21;8.65;;;1.67;;
74519;SDS011;63002;48.134;-1.948;2023-07-20T10:17:11;7.90;;;1.10;;
74519;SDS011;63002;48.134;-1.948;2023-07-20T10:19:43;7.53;;;1.40;;
74519;SDS011;63002;48.134;-1.948;2023-07-20T10:22:24;8.40;;;1.40;;
74519;SDS011;63002;48.134;-1.948;2023-07-20T10:24:52;7.13;;;1.42;;
74519;SDS011;63002;48.134;-1.948;2023-07-20T10:27:21;5.15;;;1.35;;
74519;SDS011;63002;48.134;-1.948;2023-07-20T10:29:47;7.55;;;1.13;;
74519;SDS011;63002;48.134;-1.948;2023-07-20T10:32:14;6.85;;;1.60;;
74519;SDS011;63002;48.134;-1.948;2023-07-20T10:34:42;7.35;;;1.40;;
74519;SDS011;63002;48.134;-1.948;2023-07-20T10:37:45;5.60;;;1.23;;
74519;SDS011;63002;48.134;-1.948;2023-07-20T10:48:19;8.25;;;1.90;;
